Fisher, Illinois
Current Conditions -  °F | °C
As of 4:10 PM on Friday 24 Oct 2014 (Local Time) from KTIP Reporting Station
Clear Clear  
Wind Chill: 70°   Ceiling: Unl
Heat Index: 70°   Visibility: 10mi
Dew Point: 49°   Wind: 8mph
Humidity: 47%   Direction: 240°WSW
Pressure: 30"   Gusts: NA
Location:  40.31°N, 88.35°W
Report Text: KTIP 242110Z AUTO 24007KT 10SM CLR 21/10 A3000 RMK AO2 T02120095
Loading
Personal Weather Stations






























Interactive Weather Map
Tropical Storm Tracking
New forecast layout! Learn more

10-Day Weather Forecast

Advertisements
Track Severe Weather on mobile